createdAt,value
2018-07-13T00:00:36.601Z,64.29
2018-07-13T00:05:23.162Z,64.78
2018-07-13T00:10:06.759Z,65.01
2018-07-13T00:15:01.308Z,64.92
2018-07-13T00:19:44.874Z,64.34
2018-07-13T00:24:28.537Z,64.47
2018-07-13T00:29:12.267Z,64.37
2018-07-13T00:34:01.388Z,63.38
2018-07-13T00:38:44.922Z,63.67
2018-07-13T00:43:29.545Z,62.41
2018-07-13T00:48:13.128Z,63.08
2018-07-13T00:52:56.463Z,64.15
2018-07-13T00:57:43.316Z,64.06
2018-07-13T01:02:26.909Z,64.04
2018-07-13T01:07:14.192Z,63.97
2018-07-13T01:11:57.775Z,63.43
2018-07-13T01:16:41.488Z,63.58
2018-07-13T01:21:25.153Z,65.00
2018-07-13T01:26:12.190Z,64.44
2018-07-13T01:30:55.738Z,63.94
2018-07-13T01:35:42.668Z,64.77
2018-07-13T01:40:26.113Z,65.17
2018-07-13T01:45:10.847Z,64.58
2018-07-13T01:49:54.449Z,65.11
2018-07-13T01:54:38.148Z,64.41
2018-07-13T01:59:21.500Z,65.47
2018-07-13T02:04:05.206Z,65.47
2018-07-13T02:08:48.764Z,64.61
2018-07-13T02:13:35.725Z,64.96
2018-07-13T02:18:19.172Z,63.70
2018-07-13T02:23:02.739Z,64.23
2018-07-13T02:27:49.782Z,64.28
2018-07-13T02:32:33.399Z,63.11
2018-07-13T02:37:20.012Z,63.94
2018-07-13T02:42:03.572Z,64.32
2018-07-13T02:46:48.199Z,64.74
2018-07-13T02:51:31.502Z,65.93
2018-07-13T02:56:16.055Z,66.12
2018-07-13T03:00:59.452Z,64.87
2018-07-13T03:05:46.142Z,66.80
2018-07-13T03:10:29.631Z,66.61
2018-07-13T03:15:14.190Z,65.75
2018-07-13T03:19:57.811Z,67.42
2018-07-13T03:24:42.248Z,66.98
2018-07-13T03:29:25.924Z,67.13
2018-07-13T03:34:12.654Z,66.55
2018-07-13T03:38:56.193Z,67.64
2018-07-13T03:43:44.028Z,67.49
2018-07-13T03:48:27.513Z,66.57
2018-07-13T03:53:12.066Z,67.16
2018-07-13T03:57:55.798Z,66.85
2018-07-13T04:02:39.394Z,68.10
2018-07-13T04:07:26.519Z,68.16
2018-07-13T04:12:10.158Z,67.75
2018-07-13T04:16:59.651Z,69.03
2018-07-13T04:21:43.278Z,68.53
2018-07-13T04:26:27.990Z,68.02
2018-07-13T04:31:11.667Z,67.91
2018-07-13T04:35:58.901Z,67.30
2018-07-13T04:40:42.599Z,67.24
2018-07-13T04:45:29.762Z,68.23
2018-07-13T04:50:13.360Z,67.59
2018-07-13T04:55:00.407Z,68.03
2018-07-13T04:59:45.952Z,68.60
2018-07-13T05:04:30.912Z,68.75
2018-07-13T05:09:14.906Z,69.14
2018-07-13T05:13:58.478Z,68.56
2018-07-13T05:18:42.058Z,68.41
2018-07-13T05:23:28.716Z,69.27
2018-07-13T05:28:12.162Z,69.00
2018-07-13T05:32:55.913Z,69.35
2018-07-13T05:37:39.374Z,70.02
2018-07-13T05:42:23.004Z,69.17
2018-07-13T05:47:10.202Z,69.91
2018-07-13T05:51:53.714Z,70.42
2018-07-13T05:56:42.516Z,68.97
2018-07-13T06:01:25.957Z,69.46
2018-07-13T06:06:09.704Z,69.15
2018-07-13T06:10:53.238Z,68.91
2018-07-13T06:15:39.973Z,68.09
2018-07-13T06:20:23.473Z,69.00
2018-07-13T06:25:11.517Z,69.76
2018-07-13T06:29:55.065Z,68.98
2018-07-13T06:34:38.757Z,67.75
2018-07-13T06:39:22.258Z,66.53
2018-07-13T06:44:05.853Z,67.41
2018-07-13T06:48:49.607Z,68.45
2018-07-13T06:53:36.302Z,67.30
2018-07-13T06:58:30.683Z,67.35
2018-07-13T07:03:15.421Z,67.73
2018-07-13T07:07:58.984Z,68.63
2018-07-13T07:13:02.956Z,68.53
2018-07-13T07:17:46.517Z,66.57
2018-07-13T07:22:30.237Z,66.25
2018-07-13T07:27:13.994Z,65.66
2018-07-13T07:31:57.672Z,65.56
2018-07-13T07:36:41.357Z,61.11
2018-07-13T07:41:25.215Z,61.81
2018-07-13T07:46:08.811Z,63.22
2018-07-13T07:50:52.446Z,63.56
2018-07-13T07:55:36.072Z,63.43
2018-07-13T08:00:19.653Z,59.38
2018-07-13T08:05:03.530Z,58.87
2018-07-13T08:09:47.008Z,58.16
2018-07-13T08:14:34.732Z,59.52
2018-07-13T08:19:18.266Z,59.07
2018-07-13T08:24:03.416Z,59.87
2018-07-13T08:28:48.337Z,58.15
2018-07-13T08:33:32.043Z,59.40
2018-07-13T08:38:15.619Z,59.35
2018-07-13T08:43:00.065Z,59.32
2018-07-13T08:47:43.663Z,56.75
2018-07-13T08:52:27.360Z,59.06
2018-07-13T08:57:10.758Z,59.96
2018-07-13T09:01:54.349Z,58.96
2018-07-13T09:06:39.057Z,59.40
2018-07-13T09:11:35.449Z,59.66
2018-07-13T09:16:20.244Z,53.58
2018-07-13T09:21:04.442Z,54.11
2018-07-13T09:25:51.798Z,51.21
2018-07-13T09:30:35.262Z,51.79
2018-07-13T09:35:19.736Z,55.67
2018-07-13T09:40:03.242Z,51.90
2018-07-13T09:44:48.555Z,55.87
2018-07-13T09:49:32.264Z,52.95
2018-07-13T09:54:16.722Z,53.62
2018-07-13T09:59:00.185Z,54.33
2018-07-13T10:03:44.737Z,55.46
2018-07-13T10:09:58.259Z,55.49
2018-07-13T10:14:42.853Z,56.56
2018-07-13T10:19:26.264Z,56.28
2018-07-13T10:24:09.803Z,57.86
2018-07-13T10:28:53.381Z,57.14
2018-07-13T10:33:40.020Z,57.56
2018-07-13T10:38:23.634Z,56.55
2018-07-13T10:43:07.382Z,57.24
2018-07-13T10:47:51.229Z,58.35
2018-07-13T10:52:34.972Z,54.09
2018-07-13T10:57:18.553Z,54.97
2018-07-13T11:02:02.473Z,57.79
2018-07-13T11:06:46.069Z,55.27
2018-07-13T11:11:29.721Z,53.89
2018-07-13T11:16:14.450Z,53.41
2018-07-13T11:20:58.042Z,54.08
2018-07-13T11:25:42.827Z,56.25
2018-07-13T11:30:26.098Z,54.57
2018-07-13T11:35:12.749Z,54.52
2018-07-13T11:39:56.345Z,54.88
2018-07-13T11:44:40.015Z,55.71
2018-07-13T11:49:23.653Z,54.37
2018-07-13T11:54:10.928Z,53.65
2018-07-13T11:58:54.594Z,56.70
2018-07-13T12:03:41.712Z,60.78
2018-07-13T12:08:25.311Z,62.71
2018-07-13T12:13:12.892Z,63.97
2018-07-13T12:17:56.501Z,64.44
2018-07-13T12:22:43.230Z,64.59
2018-07-13T12:27:26.795Z,64.34
2018-07-13T12:32:11.342Z,64.93
2018-07-13T12:36:54.988Z,65.08
2018-07-13T12:41:38.545Z,65.39
2018-07-13T12:46:22.330Z,65.22
2018-07-13T12:51:05.919Z,64.63
2018-07-13T12:55:49.562Z,64.07
2018-07-13T13:00:33.025Z,62.03
2018-07-13T13:05:31.610Z,62.96
2018-07-13T13:10:15.294Z,61.95
2018-07-13T13:14:58.997Z,62.77
2018-07-13T13:19:42.583Z,62.26
2018-07-13T13:24:27.419Z,63.92
2018-07-13T13:29:11.115Z,64.93
2018-07-13T13:33:54.636Z,70.86
2018-07-13T13:38:38.166Z,68.70
2018-07-13T13:43:24.840Z,64.71
2018-07-13T13:48:08.510Z,61.79
2018-07-13T13:52:52.324Z,58.25
2018-07-13T13:57:35.918Z,57.97
2018-07-13T14:02:20.567Z,56.38
2018-07-13T14:07:03.949Z,55.24
2018-07-13T14:11:47.697Z,55.18
2018-07-13T14:16:31.332Z,54.29
2018-07-13T14:21:15.011Z,54.50
2018-07-13T14:25:58.664Z,54.83
2018-07-13T14:30:42.259Z,54.04
2018-07-13T14:35:29.561Z,53.99
2018-07-13T14:40:13.152Z,53.94
2018-07-13T14:44:56.840Z,53.69
2018-07-13T14:49:46.443Z,52.87
2018-07-13T14:54:30.012Z,52.21
2018-07-13T14:59:13.609Z,52.79
2018-07-13T15:04:00.342Z,53.57
2018-07-13T15:08:43.833Z,51.93
2018-07-13T15:13:27.472Z,52.67
2018-07-13T15:18:11.110Z,51.12
2018-07-13T15:22:54.766Z,51.66
2018-07-13T15:27:38.373Z,53.25
2018-07-13T15:32:23.002Z,54.31
2018-07-13T15:37:06.562Z,53.18
2018-07-13T15:41:50.471Z,55.23
2018-07-13T15:46:34.036Z,53.86
2018-07-13T15:51:17.647Z,55.53
2018-07-13T15:56:01.268Z,55.70
2018-07-13T16:00:44.792Z,55.64
2018-07-13T16:05:28.752Z,55.62
2018-07-13T16:10:12.455Z,55.77
2018-07-13T16:14:56.226Z,56.55
2018-07-13T16:19:39.696Z,56.76
2018-07-13T16:24:23.545Z,56.37
2018-07-13T16:29:07.237Z,56.02
2018-07-13T16:33:54.406Z,56.50
2018-07-13T16:38:38.009Z,56.03
2018-07-13T16:43:25.055Z,55.73
2018-07-13T16:48:08.626Z,57.08
2018-07-13T16:52:53.373Z,55.07
2018-07-13T16:57:37.018Z,55.02
2018-07-13T17:02:20.930Z,57.41
2018-07-13T17:07:04.798Z,58.65
2018-07-13T17:11:48.300Z,59.29
2018-07-13T17:16:31.974Z,59.15
2018-07-13T17:21:16.636Z,58.48
2018-07-13T17:26:00.875Z,58.04
2018-07-13T17:30:44.418Z,59.55
2018-07-13T17:35:28.911Z,60.57
2018-07-13T17:40:12.547Z,60.41
2018-07-13T17:45:01.683Z,62.46
2018-07-13T17:49:45.118Z,63.22
2018-07-13T17:54:28.791Z,64.07
2018-07-13T17:59:12.465Z,65.02
2018-07-13T18:03:56.300Z,65.97
2018-07-13T18:08:39.853Z,66.63
2018-07-13T18:13:23.671Z,68.78
2018-07-13T18:18:07.980Z,69.59
2018-07-13T18:22:52.521Z,71.87
2018-07-13T18:27:36.140Z,70.90
2018-07-13T18:32:23.085Z,69.90
2018-07-13T18:37:06.635Z,70.74
2018-07-13T18:41:50.418Z,69.62
2018-07-13T18:46:34.102Z,69.93
2018-07-13T18:51:18.014Z,69.07
2018-07-13T18:56:01.569Z,68.58
2018-07-13T19:00:45.262Z,68.56
2018-07-13T19:05:28.995Z,67.30
2018-07-13T19:10:12.698Z,67.08
2018-07-13T19:14:57.054Z,66.89
2018-07-13T19:19:40.741Z,68.17
2018-07-13T19:24:24.395Z,65.96
2018-07-13T19:29:08.240Z,69.04
2018-07-13T19:33:55.650Z,67.35
2018-07-13T19:38:39.288Z,66.87
2018-07-13T19:43:24.536Z,66.63
2018-07-13T19:48:08.325Z,67.78
2018-07-13T19:52:52.048Z,67.17
2018-07-13T19:57:36.247Z,67.66
2018-07-13T20:02:19.901Z,66.25
2018-07-13T20:07:03.986Z,67.11
2018-07-13T20:11:47.666Z,66.31
2018-07-13T20:16:31.301Z,66.65
2018-07-13T20:21:15.974Z,65.98
2018-07-13T20:25:59.555Z,66.93
2018-07-13T20:30:46.803Z,66.36
2018-07-13T20:35:30.506Z,67.73
2018-07-13T20:40:14.203Z,68.13
2018-07-13T20:44:58.273Z,68.09
2018-07-13T20:49:41.889Z,67.46
2018-07-13T20:54:28.531Z,67.22
2018-07-13T20:59:12.234Z,67.34
2018-07-13T21:04:00.090Z,67.04
2018-07-13T21:08:43.649Z,66.53
2018-07-13T21:13:30.825Z,66.16
2018-07-13T21:18:14.504Z,65.11
2018-07-13T21:23:01.867Z,67.77
2018-07-13T21:27:45.397Z,67.21
2018-07-13T21:32:29.196Z,66.69
2018-07-13T21:37:12.562Z,66.83
2018-07-13T21:41:57.264Z,66.28
2018-07-13T21:46:40.836Z,66.40
2018-07-13T21:51:24.571Z,66.41
2018-07-13T21:56:08.000Z,66.27
2018-07-13T22:00:52.722Z,66.25
2018-07-13T22:05:36.416Z,66.36
2018-07-13T22:10:20.182Z,66.17
2018-07-13T22:15:03.827Z,65.54
2018-07-13T22:19:47.382Z,66.44
2018-07-13T22:24:31.158Z,66.92
2018-07-13T22:29:14.711Z,65.86
2018-07-13T22:33:59.332Z,66.99
2018-07-13T22:38:42.668Z,68.21
2018-07-13T22:43:26.240Z,69.06
2018-07-13T22:48:09.904Z,66.90
2018-07-13T22:52:53.589Z,67.11
2018-07-13T22:57:37.221Z,66.44
2018-07-13T23:02:24.653Z,66.88
2018-07-13T23:07:08.269Z,65.94
2018-07-13T23:11:52.472Z,66.22
2018-07-13T23:16:36.029Z,65.87
2018-07-13T23:21:20.826Z,66.49
2018-07-13T23:26:04.300Z,66.41
2018-07-13T23:30:52.228Z,65.85
2018-07-13T23:35:35.572Z,65.34
2018-07-13T23:40:22.667Z,66.46
2018-07-13T23:45:06.080Z,66.24
2018-07-13T23:49:49.589Z,66.04
2018-07-13T23:54:34.277Z,67.71
2018-07-13T23:59:17.641Z,66.95
